sensor_id;sensor_type;location;lat;lon;timestamp;temperature;humidity
19536;HTU21D;9913;51.168;4.124;2023-07-20T00:00:35;16.99;89.36
19536;HTU21D;9913;51.168;4.124;2023-07-20T00:03:11;17.03;89.45
19536;HTU21D;9913;51.168;4.124;2023-07-20T00:05:45;16.82;90.20
19536;HTU21D;9913;51.168;4.124;2023-07-20T00:08:14;16.70;90.77
19536;HTU21D;9913;51.168;4.124;2023-07-20T00:10:43;16.61;90.78
19536;HTU21D;9913;51.168;4.124;2023-07-20T00:13:11;16.67;91.01
19536;HTU21D;9913;51.168;4.124;2023-07-20T00:15:40;16.60;90.94
19536;HTU21D;9913;51.168;4.124;2023-07-20T00:18:08;16.55;91.37
19536;HTU21D;9913;51.168;4.124;2023-07-20T00:20:36;16.52;91.66
19536;HTU21D;9913;51.168;4.124;2023-07-20T00:23:06;16.41;91.92
19536;HTU21D;9913;51.168;4.124;2023-07-20T00:25:35;16.44;91.63
19536;HTU21D;9913;51.168;4.124;2023-07-20T00:28:04;16.49;92.13
19536;HTU21D;9913;51.168;4.124;2023-07-20T00:30:32;16.35;91.92
19536;HTU21D;9913;51.168;4.124;2023-07-20T00:33:00;16.25;92.18
19536;HTU21D;9913;51.168;4.124;2023-07-20T00:35:29;16.21;92.47
19536;HTU21D;9913;51.168;4.124;2023-07-20T00:37:57;16.31;92.28
19536;HTU21D;9913;51.168;4.124;2023-07-20T00:40:27;16.17;92.70
19536;HTU21D;9913;51.168;4.124;2023-07-20T00:42:55;16.22;92.87
19536;HTU21D;9913;51.168;4.124;2023-07-20T00:45:24;15.97;93.47
19536;HTU21D;9913;51.168;4.124;2023-07-20T00:47:53;15.95;93.57
19536;HTU21D;9913;51.168;4.124;2023-07-20T00:50:22;16.00;93.62
19536;HTU21D;9913;51.168;4.124;2023-07-20T00:52:50;15.93;93.63
19536;HTU21D;9913;51.168;4.124;2023-07-20T00:55:19;15.93;93.43
19536;HTU21D;9913;51.168;4.124;2023-07-20T00:57:49;15.88;93.65
19536;HTU21D;9913;51.168;4.124;2023-07-20T01:00:18;15.83;93.74
19536;HTU21D;9913;51.168;4.124;2023-07-20T01:02:46;15.86;93.95
19536;HTU21D;9913;51.168;4.124;2023-07-20T01:05:15;15.87;93.93
19536;HTU21D;9913;51.168;4.124;2023-07-20T01:07:49;15.67;94.07
19536;HTU21D;9913;51.168;4.124;2023-07-20T01:10:25;15.67;94.25
19536;HTU21D;9913;51.168;4.124;2023-07-20T01:13:00;15.65;94.46
19536;HTU21D;9913;51.168;4.124;2023-07-20T01:15:30;15.60;94.33
19536;HTU21D;9913;51.168;4.124;2023-07-20T01:18:00;15.67;94.40
19536;HTU21D;9913;51.168;4.124;2023-07-20T01:20:30;15.63;94.69
19536;HTU21D;9913;51.168;4.124;2023-07-20T01:23:27;15.57;94.70
19536;HTU21D;9913;51.168;4.124;2023-07-20T01:26:32;15.39;94.57
19536;HTU21D;9913;51.168;4.124;2023-07-20T01:29:28;15.30;94.90
19536;HTU21D;9913;51.168;4.124;2023-07-20T01:32:04;15.45;94.60
19536;HTU21D;9913;51.168;4.124;2023-07-20T01:34:35;15.44;94.65
19536;HTU21D;9913;51.168;4.124;2023-07-20T01:37:05;15.46;95.06
19536;HTU21D;9913;51.168;4.124;2023-07-20T01:39:36;15.37;94.88
19536;HTU21D;9913;51.168;4.124;2023-07-20T01:42:05;15.46;94.85
19536;HTU21D;9913;51.168;4.124;2023-07-20T01:44:34;15.42;94.84
19536;HTU21D;9913;51.168;4.124;2023-07-20T01:47:04;15.45;94.88
19536;HTU21D;9913;51.168;4.124;2023-07-20T01:49:32;15.44;94.88
19536;HTU21D;9913;51.168;4.124;2023-07-20T01:52:00;15.46;95.46
19536;HTU21D;9913;51.168;4.124;2023-07-20T01:54:30;15.40;95.36
19536;HTU21D;9913;51.168;4.124;2023-07-20T01:56:58;15.38;95.14
19536;HTU21D;9913;51.168;4.124;2023-07-20T01:59:27;15.37;95.33
19536;HTU21D;9913;51.168;4.124;2023-07-20T02:01:55;15.28;95.41
19536;HTU21D;9913;51.168;4.124;2023-07-20T02:04:25;15.27;95.20
19536;HTU21D;9913;51.168;4.124;2023-07-20T02:06:53;15.15;95.45
19536;HTU21D;9913;51.168;4.124;2023-07-20T02:09:23;15.10;95.62
19536;HTU21D;9913;51.168;4.124;2023-07-20T02:11:51;15.04;95.54
19536;HTU21D;9913;51.168;4.124;2023-07-20T02:14:20;15.01;95.81
19536;HTU21D;9913;51.168;4.124;2023-07-20T02:16:49;15.15;95.64
19536;HTU21D;9913;51.168;4.124;2023-07-20T02:19:21;15.16;95.57
19536;HTU21D;9913;51.168;4.124;2023-07-20T02:21:50;14.97;95.63
19536;HTU21D;9913;51.168;4.124;2023-07-20T02:24:19;15.08;95.72
19536;HTU21D;9913;51.168;4.124;2023-07-20T02:26:47;15.07;95.57
19536;HTU21D;9913;51.168;4.124;2023-07-20T02:29:15;15.01;95.48
19536;HTU21D;9913;51.168;4.124;2023-07-20T02:31:44;14.93;95.88
19536;HTU21D;9913;51.168;4.124;2023-07-20T02:34:12;14.92;95.97
19536;HTU21D;9913;51.168;4.124;2023-07-20T02:36:40;14.80;95.95
19536;HTU21D;9913;51.168;4.124;2023-07-20T02:39:11;14.80;96.15
19536;HTU21D;9913;51.168;4.124;2023-07-20T02:41:39;14.84;96.42
19536;HTU21D;9913;51.168;4.124;2023-07-20T02:44:08;14.97;96.49
19536;HTU21D;9913;51.168;4.124;2023-07-20T02:46:36;15.01;96.23
19536;HTU21D;9913;51.168;4.124;2023-07-20T02:49:05;14.97;96.43
19536;HTU21D;9913;51.168;4.124;2023-07-20T02:51:33;14.96;96.73
19536;HTU21D;9913;51.168;4.124;2023-07-20T02:54:02;15.11;96.76
19536;HTU21D;9913;51.168;4.124;2023-07-20T02:56:32;15.14;96.92
19536;HTU21D;9913;51.168;4.124;2023-07-20T02:59:01;15.29;96.47
19536;HTU21D;9913;51.168;4.124;2023-07-20T03:01:30;15.38;96.46
19536;HTU21D;9913;51.168;4.124;2023-07-20T03:03:58;15.34;95.78
19536;HTU21D;9913;51.168;4.124;2023-07-20T03:06:27;15.24;96.23
19536;HTU21D;9913;51.168;4.124;2023-07-20T03:08:55;15.13;96.49
19536;HTU21D;9913;51.168;4.124;2023-07-20T03:11:24;15.25;96.58
19536;HTU21D;9913;51.168;4.124;2023-07-20T03:13:54;15.21;96.78
19536;HTU21D;9913;51.168;4.124;2023-07-20T03:16:23;15.21;96.83
19536;HTU21D;9913;51.168;4.124;2023-07-20T03:18:53;15.25;96.67
19536;HTU21D;9913;51.168;4.124;2023-07-20T03:21:25;15.26;96.78
19536;HTU21D;9913;51.168;4.124;2023-07-20T03:23:53;15.27;96.63
19536;HTU21D;9913;51.168;4.124;2023-07-20T03:26:23;15.32;96.65
19536;HTU21D;9913;51.168;4.124;2023-07-20T03:28:51;15.40;96.62
19536;HTU21D;9913;51.168;4.124;2023-07-20T03:31:22;15.40;96.69
19536;HTU21D;9913;51.168;4.124;2023-07-20T03:33:52;15.33;96.57
19536;HTU21D;9913;51.168;4.124;2023-07-20T03:36:20;15.34;96.89
19536;HTU21D;9913;51.168;4.124;2023-07-20T03:38:50;15.49;96.39
19536;HTU21D;9913;51.168;4.124;2023-07-20T03:41:18;15.51;96.42
19536;HTU21D;9913;51.168;4.124;2023-07-20T03:43:47;15.43;96.62
19536;HTU21D;9913;51.168;4.124;2023-07-20T03:46:16;15.49;96.68
19536;HTU21D;9913;51.168;4.124;2023-07-20T03:48:45;15.44;96.53
19536;HTU21D;9913;51.168;4.124;2023-07-20T03:51:14;15.47;96.55
19536;HTU21D;9913;51.168;4.124;2023-07-20T03:53:42;15.48;96.73
19536;HTU21D;9913;51.168;4.124;2023-07-20T03:56:10;15.53;96.58
19536;HTU21D;9913;51.168;4.124;2023-07-20T03:58:39;15.46;96.75
19536;HTU21D;9913;51.168;4.124;2023-07-20T04:01:07;15.45;96.71
19536;HTU21D;9913;51.168;4.124;2023-07-20T04:03:36;15.54;96.30
19536;HTU21D;9913;51.168;4.124;2023-07-20T04:06:06;15.58;96.42
19536;HTU21D;9913;51.168;4.124;2023-07-20T04:08:35;15.46;96.49
19536;HTU21D;9913;51.168;4.124;2023-07-20T04:11:04;15.46;96.39
19536;HTU21D;9913;51.168;4.124;2023-07-20T04:13:32;15.47;96.54
19536;HTU21D;9913;51.168;4.124;2023-07-20T04:16:01;15.40;96.73
19536;HTU21D;9913;51.168;4.124;2023-07-20T04:18:29;15.55;96.68
19536;HTU21D;9913;51.168;4.124;2023-07-20T04:20:58;15.55;96.56
19536;HTU21D;9913;51.168;4.124;2023-07-20T04:23:28;15.61;96.66
19536;HTU21D;9913;51.168;4.124;2023-07-20T04:25:56;15.65;96.29
19536;HTU21D;9913;51.168;4.124;2023-07-20T04:28:25;15.55;96.73
19536;HTU21D;9913;51.168;4.124;2023-07-20T04:30:53;15.54;96.70
19536;HTU21D;9913;51.168;4.124;2023-07-20T04:33:22;15.56;96.71
19536;HTU21D;9913;51.168;4.124;2023-07-20T04:35:51;15.63;96.87
19536;HTU21D;9913;51.168;4.124;2023-07-20T04:38:23;15.60;96.81
19536;HTU21D;9913;51.168;4.124;2023-07-20T04:41:02;15.56;97.03
19536;HTU21D;9913;51.168;4.124;2023-07-20T04:43:35;15.48;97.14
19536;HTU21D;9913;51.168;4.124;2023-07-20T04:46:03;15.61;96.84
19536;HTU21D;9913;51.168;4.124;2023-07-20T04:48:34;15.65;96.75
19536;HTU21D;9913;51.168;4.124;2023-07-20T04:51:03;15.63;96.71
19536;HTU21D;9913;51.168;4.124;2023-07-20T04:53:31;15.74;96.77
19536;HTU21D;9913;51.168;4.124;2023-07-20T04:56:02;15.74;96.58
19536;HTU21D;9913;51.168;4.124;2023-07-20T04:58:30;15.72;96.86
19536;HTU21D;9913;51.168;4.124;2023-07-20T05:00:59;15.74;96.53
19536;HTU21D;9913;51.168;4.124;2023-07-20T05:03:27;15.75;96.27
19536;HTU21D;9913;51.168;4.124;2023-07-20T05:05:57;15.80;96.41
19536;HTU21D;9913;51.168;4.124;2023-07-20T05:08:25;15.90;96.54
19536;HTU21D;9913;51.168;4.124;2023-07-20T05:10:54;15.86;96.39
19536;HTU21D;9913;51.168;4.124;2023-07-20T05:13:24;15.88;96.72
19536;HTU21D;9913;51.168;4.124;2023-07-20T05:15:53;15.97;96.34
19536;HTU21D;9913;51.168;4.124;2023-07-20T05:18:23;16.03;96.04
19536;HTU21D;9913;51.168;4.124;2023-07-20T05:20:51;16.07;96.03
19536;HTU21D;9913;51.168;4.124;2023-07-20T05:23:19;16.11;95.49
19536;HTU21D;9913;51.168;4.124;2023-07-20T05:25:54;16.22;95.75
19536;HTU21D;9913;51.168;4.124;2023-07-20T05:28:24;16.29;95.89
19536;HTU21D;9913;51.168;4.124;2023-07-20T05:30:53;16.35;94.66
19536;HTU21D;9913;51.168;4.124;2023-07-20T05:33:22;16.43;94.94
19536;HTU21D;9913;51.168;4.124;2023-07-20T05:35:50;16.56;95.01
19536;HTU21D;9913;51.168;4.124;2023-07-20T05:38:19;16.74;93.94
19536;HTU21D;9913;51.168;4.124;2023-07-20T05:40:47;16.71;93.83
19536;HTU21D;9913;51.168;4.124;2023-07-20T05:43:15;16.74;93.76
19536;HTU21D;9913;51.168;4.124;2023-07-20T05:45:45;16.65;93.96
19536;HTU21D;9913;51.168;4.124;2023-07-20T05:48:15;16.60;94.41
19536;HTU21D;9913;51.168;4.124;2023-07-20T05:50:43;16.74;93.30
19536;HTU21D;9913;51.168;4.124;2023-07-20T05:53:12;16.70;93.97
19536;HTU21D;9913;51.168;4.124;2023-07-20T05:55:40;16.66;93.94
19536;HTU21D;9913;51.168;4.124;2023-07-20T05:58:08;16.76;94.07
19536;HTU21D;9913;51.168;4.124;2023-07-20T06:00:37;16.74;93.42
19536;HTU21D;9913;51.168;4.124;2023-07-20T06:03:06;16.70;93.03
19536;HTU21D;9913;51.168;4.124;2023-07-20T06:05:35;16.78;93.55
19536;HTU21D;9913;51.168;4.124;2023-07-20T06:08:04;16.81;93.62
19536;HTU21D;9913;51.168;4.124;2023-07-20T06:10:33;17.14;92.56
19536;HTU21D;9913;51.168;4.124;2023-07-20T06:13:00;17.30;92.69
19536;HTU21D;9913;51.168;4.124;2023-07-20T06:15:32;17.36;92.47
19536;HTU21D;9913;51.168;4.124;2023-07-20T06:18:02;17.33;92.34
19536;HTU21D;9913;51.168;4.124;2023-07-20T06:20:32;17.70;90.80
19536;HTU21D;9913;51.168;4.124;2023-07-20T06:23:00;18.19;88.09
19536;HTU21D;9913;51.168;4.124;2023-07-20T06:25:29;18.20;88.53
19536;HTU21D;9913;51.168;4.124;2023-07-20T06:27:57;18.19;87.73
19536;HTU21D;9913;51.168;4.124;2023-07-20T06:30:26;18.09;88.76
19536;HTU21D;9913;51.168;4.124;2023-07-20T06:32:54;18.03;88.99
19536;HTU21D;9913;51.168;4.124;2023-07-20T06:35:22;17.83;89.28
19536;HTU21D;9913;51.168;4.124;2023-07-20T06:37:52;17.95;88.55
19536;HTU21D;9913;51.168;4.124;2023-07-20T06:40:21;17.94;88.01
19536;HTU21D;9913;51.168;4.124;2023-07-20T06:42:52;18.27;87.61
19536;HTU21D;9913;51.168;4.124;2023-07-20T06:45:24;18.21;86.67
19536;HTU21D;9913;51.168;4.124;2023-07-20T06:47:52;18.08;86.70
19536;HTU21D;9913;51.168;4.124;2023-07-20T06:50:20;18.13;85.95
19536;HTU21D;9913;51.168;4.124;2023-07-20T06:52:54;18.06;86.66
19536;HTU21D;9913;51.168;4.124;2023-07-20T06:55:25;18.41;85.48
19536;HTU21D;9913;51.168;4.124;2023-07-20T06:57:58;18.61;84.29
19536;HTU21D;9913;51.168;4.124;2023-07-20T07:00:26;18.48;84.69
19536;HTU21D;9913;51.168;4.124;2023-07-20T07:02:55;18.41;83.75
19536;HTU21D;9913;51.168;4.124;2023-07-20T07:05:23;18.18;85.08
19536;HTU21D;9913;51.168;4.124;2023-07-20T07:08:03;18.24;85.42
19536;HTU21D;9913;51.168;4.124;2023-07-20T07:10:32;18.64;84.64
19536;HTU21D;9913;51.168;4.124;2023-07-20T07:13:00;18.67;84.91
19536;HTU21D;9913;51.168;4.124;2023-07-20T07:15:29;18.92;84.29
19536;HTU21D;9913;51.168;4.124;2023-07-20T07:17:58;18.94;82.56
19536;HTU21D;9913;51.168;4.124;2023-07-20T07:20:29;18.89;83.24
19536;HTU21D;9913;51.168;4.124;2023-07-20T07:23:00;19.22;82.29
19536;HTU21D;9913;51.168;4.124;2023-07-20T07:25:30;19.07;82.92
19536;HTU21D;9913;51.168;4.124;2023-07-20T07:28:02;18.73;82.32
19536;HTU21D;9913;51.168;4.124;2023-07-20T07:30:34;19.62;81.38
19536;HTU21D;9913;51.168;4.124;2023-07-20T07:33:02;19.40;80.62
19536;HTU21D;9913;51.168;4.124;2023-07-20T07:35:30;19.13;81.35
19536;HTU21D;9913;51.168;4.124;2023-07-20T07:37:59;19.40;79.97
19536;HTU21D;9913;51.168;4.124;2023-07-20T07:40:46;19.36;79.53
19536;HTU21D;9913;51.168;4.124;2023-07-20T07:43:14;18.84;79.08
19536;HTU21D;9913;51.168;4.124;2023-07-20T07:45:43;19.41;79.75
19536;HTU21D;9913;51.168;4.124;2023-07-20T07:48:11;19.53;78.78
19536;HTU21D;9913;51.168;4.124;2023-07-20T07:50:41;19.52;78.04
19536;HTU21D;9913;51.168;4.124;2023-07-20T07:53:09;19.26;79.28
19536;HTU21D;9913;51.168;4.124;2023-07-20T07:55:37;19.22;80.10
19536;HTU21D;9913;51.168;4.124;2023-07-20T07:58:07;19.58;79.41
19536;HTU21D;9913;51.168;4.124;2023-07-20T08:00:36;19.84;76.53
19536;HTU21D;9913;51.168;4.124;2023-07-20T08:03:06;19.65;78.49
19536;HTU21D;9913;51.168;4.124;2023-07-20T08:05:35;19.30;78.66
19536;HTU21D;9913;51.168;4.124;2023-07-20T08:08:03;19.42;77.45
19536;HTU21D;9913;51.168;4.124;2023-07-20T08:10:31;19.63;75.90
19536;HTU21D;9913;51.168;4.124;2023-07-20T08:13:00;19.36;75.39
19536;HTU21D;9913;51.168;4.124;2023-07-20T08:15:30;19.50;75.88
19536;HTU21D;9913;51.168;4.124;2023-07-20T08:17:58;19.71;74.66
19536;HTU21D;9913;51.168;4.124;2023-07-20T08:20:30;19.58;74.27
19536;HTU21D;9913;51.168;4.124;2023-07-20T08:22:59;19.69;74.75
19536;HTU21D;9913;51.168;4.124;2023-07-20T08:25:27;19.83;74.87
19536;HTU21D;9913;51.168;4.124;2023-07-20T08:27:56;19.90;74.60
19536;HTU21D;9913;51.168;4.124;2023-07-20T08:30:24;19.50;73.67
19536;HTU21D;9913;51.168;4.124;2023-07-20T08:32:56;19.11;73.18
19536;HTU21D;9913;51.168;4.124;2023-07-20T08:35:25;19.25;76.78
19536;HTU21D;9913;51.168;4.124;2023-07-20T08:37:54;19.53;77.05
19536;HTU21D;9913;51.168;4.124;2023-07-20T08:40:24;19.66;73.22
19536;HTU21D;9913;51.168;4.124;2023-07-20T08:43:18;19.68;73.68
19536;HTU21D;9913;51.168;4.124;2023-07-20T08:45:48;19.90;76.37
19536;HTU21D;9913;51.168;4.124;2023-07-20T08:48:18;20.05;75.84
19536;HTU21D;9913;51.168;4.124;2023-07-20T08:50:47;20.40;72.45
19536;HTU21D;9913;51.168;4.124;2023-07-20T08:53:17;21.14;72.32
19536;HTU21D;9913;51.168;4.124;2023-07-20T08:55:46;21.01;70.29
19536;HTU21D;9913;51.168;4.124;2023-07-20T08:58:16;21.50;71.05
19536;HTU21D;9913;51.168;4.124;2023-07-20T09:00:47;21.25;71.15
19536;HTU21D;9913;51.168;4.124;2023-07-20T09:04:40;21.88;66.69
19536;HTU21D;9913;51.168;4.124;2023-07-20T09:07:10;22.14;68.52
19536;HTU21D;9913;51.168;4.124;2023-07-20T09:09:39;22.22;70.19
19536;HTU21D;9913;51.168;4.124;2023-07-20T09:12:13;22.03;69.01
19536;HTU21D;9913;51.168;4.124;2023-07-20T09:14:43;22.06;67.97
19536;HTU21D;9913;51.168;4.124;2023-07-20T09:17:15;21.22;68.34
19536;HTU21D;9913;51.168;4.124;2023-07-20T09:19:48;21.43;70.06
19536;HTU21D;9913;51.168;4.124;2023-07-20T09:22:17;21.35;68.78
19536;HTU21D;9913;51.168;4.124;2023-07-20T09:24:45;21.46;69.10
19536;HTU21D;9913;51.168;4.124;2023-07-20T09:27:16;21.27;69.88
19536;HTU21D;9913;51.168;4.124;2023-07-20T09:29:47;21.38;67.65
19536;HTU21D;9913;51.168;4.124;2023-07-20T09:32:18;21.62;69.42
19536;HTU21D;9913;51.168;4.124;2023-07-20T09:34:51;21.64;66.76
19536;HTU21D;9913;51.168;4.124;2023-07-20T09:37:21;22.03;69.02
19536;HTU21D;9913;51.168;4.124;2023-07-20T09:39:51;22.09;65.91
19536;HTU21D;9913;51.168;4.124;2023-07-20T09:42:23;22.18;67.13
19536;HTU21D;9913;51.168;4.124;2023-07-20T09:44:56;21.43;67.36
19536;HTU21D;9913;51.168;4.124;2023-07-20T09:47:25;21.78;68.28
19536;HTU21D;9913;51.168;4.124;2023-07-20T09:49:59;22.28;67.84
19536;HTU21D;9913;51.168;4.124;2023-07-20T09:52:31;22.01;66.00
19536;HTU21D;9913;51.168;4.124;2023-07-20T09:55:03;21.84;66.91
19536;HTU21D;9913;51.168;4.124;2023-07-20T09:57:32;21.66;66.82
19536;HTU21D;9913;51.168;4.124;2023-07-20T10:00:01;21.80;69.05
19536;HTU21D;9913;51.168;4.124;2023-07-20T10:02:40;22.33;66.90
19536;HTU21D;9913;51.168;4.124;2023-07-20T10:05:12;22.47;66.07
19536;HTU21D;9913;51.168;4.124;2023-07-20T10:07:47;22.29;67.25
19536;HTU21D;9913;51.168;4.124;2023-07-20T10:10:16;22.02;67.01
19536;HTU21D;9913;51.168;4.124;2023-07-20T10:12:47;21.58;66.76
19536;HTU21D;9913;51.168;4.124;2023-07-20T10:15:20;21.44;65.71
19536;HTU21D;9913;51.168;4.124;2023-07-20T10:17:59;21.36;68.09
19536;HTU21D;9913;51.168;4.124;2023-07-20T10:20:32;21.74;65.19
19536;HTU21D;9913;51.168;4.124;2023-07-20T10:23:01;22.23;64.76
19536;HTU21D;9913;51.168;4.124;2023-07-20T10:25:30;21.92;65.75
19536;HTU21D;9913;51.168;4.124;2023-07-20T10:28:00;22.46;67.02
19536;HTU21D;9913;51.168;4.124;2023-07-20T10:30:29;23.13;68.85
19536;HTU21D;9913;51.168;4.124;2023-07-20T10:32:59;22.99;68.01
19536;HTU21D;9913;51.168;4.124;2023-07-20T10:35:51;23.23;63.66
19536;HTU21D;9913;51.168;4.124;2023-07-20T10:38:20;22.83;64.93
19536;HTU21D;9913;51.168;4.124;2023-07-20T10:41:00;22.48;64.33
19536;HTU21D;9913;51.168;4.124;2023-07-20T10:43:29;22.81;65.30
19536;HTU21D;9913;51.168;4.124;2023-07-20T10:46:00;22.27;66.04
19536;HTU21D;9913;51.168;4.124;2023-07-20T10:48:31;23.74;64.08
19536;HTU21D;9913;51.168;4.124;2023-07-20T10:51:11;23.50;74.64
19536;HTU21D;9913;51.168;4.124;2023-07-20T10:53:41;23.15;74.86
19536;HTU21D;9913;51.168;4.124;2023-07-20T10:56:12;23.59;79.43
19536;HTU21D;9913;51.168;4.124;2023-07-20T10:58:41;23.72;84.49
19536;HTU21D;9913;51.168;4.124;2023-07-20T11:01:13;23.82;89.85
19536;HTU21D;9913;51.168;4.124;2023-07-20T11:03:43;23.11;91.25
19536;HTU21D;9913;51.168;4.124;2023-07-20T11:06:31;23.70;96.77
19536;HTU21D;9913;51.168;4.124;2023-07-20T11:09:06;23.44;97.23
19536;HTU21D;9913;51.168;4.124;2023-07-20T11:11:38;23.10;93.63
19536;HTU21D;9913;51.168;4.124;2023-07-20T11:14:08;22.92;99.11
19536;HTU21D;9913;51.168;4.124;2023-07-20T11:16:39;22.51;101.18
19536;HTU21D;9913;51.168;4.124;2023-07-20T11:19:14;22.48;100.48
19536;HTU21D;9913;51.168;4.124;2023-07-20T11:22:05;22.32;100.32
19536;HTU21D;9913;51.168;4.124;2023-07-20T11:24:37;22.01;100.61
19536;HTU21D;9913;51.168;4.124;2023-07-20T11:27:06;22.77;100.42
19536;HTU21D;9913;51.168;4.124;2023-07-20T11:29:37;22.84;102.52
19536;HTU21D;9913;51.168;4.124;2023-07-20T11:32:05;22.79;102.60
19536;HTU21D;9913;51.168;4.124;2023-07-20T11:34:34;22.42;102.84
19536;HTU21D;9913;51.168;4.124;2023-07-20T11:37:05;22.20;104.98
19536;HTU21D;9913;51.168;4.124;2023-07-20T11:39:37;22.48;104.76
19536;HTU21D;9913;51.168;4.124;2023-07-20T11:42:05;22.64;100.25
19536;HTU21D;9913;51.168;4.124;2023-07-20T11:44:34;22.27;103.60
19536;HTU21D;9913;51.168;4.124;2023-07-20T11:47:05;21.84;104.28
19536;HTU21D;9913;51.168;4.124;2023-07-20T11:49:37;21.82;103.33
19536;HTU21D;9913;51.168;4.124;2023-07-20T11:52:08;21.72;101.90
19536;HTU21D;9913;51.168;4.124;2023-07-20T11:54:39;22.23;102.02
19536;HTU21D;9913;51.168;4.124;2023-07-20T11:57:16;21.95;104.02
19536;HTU21D;9913;51.168;4.124;2023-07-20T11:59:52;21.91;98.90
19536;HTU21D;9913;51.168;4.124;2023-07-20T12:02:26;22.02;102.31
19536;HTU21D;9913;51.168;4.124;2023-07-20T12:04:55;22.05;105.06
19536;HTU21D;9913;51.168;4.124;2023-07-20T12:07:27;21.77;100.64
19536;HTU21D;9913;51.168;4.124;2023-07-20T12:10:06;22.42;101.25
19536;HTU21D;9913;51.168;4.124;2023-07-20T12:12:37;22.19;100.21
19536;HTU21D;9913;51.168;4.124;2023-07-20T12:15:17;22.33;103.55
19536;HTU21D;9913;51.168;4.124;2023-07-20T12:17:50;22.94;102.83
19536;HTU21D;9913;51.168;4.124;2023-07-20T12:20:25;22.38;102.00
19536;HTU21D;9913;51.168;4.124;2023-07-20T12:22:58;22.62;102.04
19536;HTU21D;9913;51.168;4.124;2023-07-20T12:25:36;22.38;103.26
19536;HTU21D;9913;51.168;4.124;2023-07-20T12:28:06;22.50;101.85
19536;HTU21D;9913;51.168;4.124;2023-07-20T12:30:35;21.79;99.00
19536;HTU21D;9913;51.168;4.124;2023-07-20T12:33:04;21.58;103.95
19536;HTU21D;9913;51.168;4.124;2023-07-20T12:35:33;21.47;103.12
19536;HTU21D;9913;51.168;4.124;2023-07-20T12:38:03;21.20;104.40
19536;HTU21D;9913;51.168;4.124;2023-07-20T12:40:32;21.04;104.86
19536;HTU21D;9913;51.168;4.124;2023-07-20T12:43:00;21.06;104.40
19536;HTU21D;9913;51.168;4.124;2023-07-20T12:45:28;21.06;104.69
19536;HTU21D;9913;51.168;4.124;2023-07-20T12:47:57;20.94;104.60
19536;HTU21D;9913;51.168;4.124;2023-07-20T12:50:26;21.05;105.37
19536;HTU21D;9913;51.168;4.124;2023-07-20T12:52:55;20.84;104.79
19536;HTU21D;9913;51.168;4.124;2023-07-20T16:25:29;18.49;84.73
19536;HTU21D;9913;51.168;4.124;2023-07-20T16:27:57;18.52;83.36
19536;HTU21D;9913;51.168;4.124;2023-07-20T16:30:27;18.66;83.32
19536;HTU21D;9913;51.168;4.124;2023-07-20T16:32:56;19.62;81.04
19536;HTU21D;9913;51.168;4.124;2023-07-20T16:35:29;20.15;78.33
19536;HTU21D;9913;51.168;4.124;2023-07-20T16:38:00;21.50;73.61
19536;HTU21D;9913;51.168;4.124;2023-07-20T16:40:35;22.62;70.61
19536;HTU21D;9913;51.168;4.124;2023-07-20T16:43:06;23.64;66.83
19536;HTU21D;9913;51.168;4.124;2023-07-20T16:45:35;24.31;66.79
19536;HTU21D;9913;51.168;4.124;2023-07-20T16:48:03;24.71;64.21
19536;HTU21D;9913;51.168;4.124;2023-07-20T16:50:32;24.55;64.11
19536;HTU21D;9913;51.168;4.124;2023-07-20T16:53:00;24.11;63.27
19536;HTU21D;9913;51.168;4.124;2023-07-20T16:55:29;24.30;62.57
19536;HTU21D;9913;51.168;4.124;2023-07-20T16:57:59;24.91;82.18
19536;HTU21D;9913;51.168;4.124;2023-07-20T17:00:27;25.17;83.30
19536;HTU21D;9913;51.168;4.124;2023-07-20T17:02:55;25.00;90.13
19536;HTU21D;9913;51.168;4.124;2023-07-20T17:05:23;24.60;90.47
19536;HTU21D;9913;51.168;4.124;2023-07-20T17:07:52;24.84;95.29
19536;HTU21D;9913;51.168;4.124;2023-07-20T17:10:22;24.68;94.26
19536;HTU21D;9913;51.168;4.124;2023-07-20T17:12:51;24.44;92.32
19536;HTU21D;9913;51.168;4.124;2023-07-20T17:15:24;24.31;93.71
19536;HTU21D;9913;51.168;4.124;2023-07-20T17:17:52;22.90;94.48
19536;HTU21D;9913;51.168;4.124;2023-07-20T17:20:22;22.35;99.36
19536;HTU21D;9913;51.168;4.124;2023-07-20T17:22:53;23.46;96.97
19536;HTU21D;9913;51.168;4.124;2023-07-20T17:25:21;22.47;98.32
19536;HTU21D;9913;51.168;4.124;2023-07-20T17:27:52;21.13;102.28
19536;HTU21D;9913;51.168;4.124;2023-07-20T17:30:25;20.55;103.11
19536;HTU21D;9913;51.168;4.124;2023-07-20T17:32:55;20.53;104.84
19536;HTU21D;9913;51.168;4.124;2023-07-20T17:35:23;20.26;104.97
19536;HTU21D;9913;51.168;4.124;2023-07-20T17:37:53;20.00;101.37
19536;HTU21D;9913;51.168;4.124;2023-07-20T17:40:25;19.84;107.18
19536;HTU21D;9913;51.168;4.124;2023-07-20T17:42:56;20.10;107.56
19536;HTU21D;9913;51.168;4.124;2023-07-20T17:45:29;19.99;102.07
19536;HTU21D;9913;51.168;4.124;2023-07-20T17:47:57;19.85;107.43
19536;HTU21D;9913;51.168;4.124;2023-07-20T17:50:29;19.51;107.09
19536;HTU21D;9913;51.168;4.124;2023-07-20T17:52:57;19.42;105.44
19536;HTU21D;9913;51.168;4.124;2023-07-20T17:55:26;19.53;105.82
19536;HTU21D;9913;51.168;4.124;2023-07-20T17:57:54;19.71;107.39
19536;HTU21D;9913;51.168;4.124;2023-07-20T18:00:23;19.55;105.85
19536;HTU21D;9913;51.168;4.124;2023-07-20T18:02:56;19.54;104.79
19536;HTU21D;9913;51.168;4.124;2023-07-20T18:05:25;19.40;107.51
19536;HTU21D;9913;51.168;4.124;2023-07-20T18:07:54;19.53;102.44
19536;HTU21D;9913;51.168;4.124;2023-07-20T18:10:22;19.72;104.77
19536;HTU21D;9913;51.168;4.124;2023-07-20T18:12:50;19.96;107.58
19536;HTU21D;9913;51.168;4.124;2023-07-20T18:15:19;20.00;108.59
19536;HTU21D;9913;51.168;4.124;2023-07-20T18:17:47;20.10;106.00
19536;HTU21D;9913;51.168;4.124;2023-07-20T18:20:17;20.07;105.25
19536;HTU21D;9913;51.168;4.124;2023-07-20T18:22:45;19.91;105.86
19536;HTU21D;9913;51.168;4.124;2023-07-20T18:25:14;19.99;106.86
19536;HTU21D;9913;51.168;4.124;2023-07-20T18:27:42;19.90;102.73
19536;HTU21D;9913;51.168;4.124;2023-07-20T18:30:11;19.85;107.87
19536;HTU21D;9913;51.168;4.124;2023-07-20T18:32:45;19.61;104.94
19536;HTU21D;9913;51.168;4.124;2023-07-20T18:35:14;19.45;103.36
19536;HTU21D;9913;51.168;4.124;2023-07-20T18:37:44;19.37;102.87
19536;HTU21D;9913;51.168;4.124;2023-07-20T18:40:14;19.47;100.20
19536;HTU21D;9913;51.168;4.124;2023-07-20T18:42:42;19.33;98.27
19536;HTU21D;9913;51.168;4.124;2023-07-20T18:45:11;19.23;99.74
19536;HTU21D;9913;51.168;4.124;2023-07-20T18:47:39;19.12;103.59
19536;HTU21D;9913;51.168;4.124;2023-07-20T18:50:11;19.03;101.81
19536;HTU21D;9913;51.168;4.124;2023-07-20T18:52:39;18.87;97.49
19536;HTU21D;9913;51.168;4.124;2023-07-20T18:55:09;18.80;98.10
19536;HTU21D;9913;51.168;4.124;2023-07-20T18:57:37;18.70;102.06
19536;HTU21D;9913;51.168;4.124;2023-07-20T19:00:08;18.73;99.98
19536;HTU21D;9913;51.168;4.124;2023-07-20T19:02:37;18.59;96.37
19536;HTU21D;9913;51.168;4.124;2023-07-20T19:05:06;18.47;99.89
19536;HTU21D;9913;51.168;4.124;2023-07-20T19:07:34;18.44;98.43
19536;HTU21D;9913;51.168;4.124;2023-07-20T19:10:03;18.39;97.93
19536;HTU21D;9913;51.168;4.124;2023-07-20T19:12:33;18.27;96.46
19536;HTU21D;9913;51.168;4.124;2023-07-20T19:15:02;18.28;95.68
19536;HTU21D;9913;51.168;4.124;2023-07-20T19:17:31;18.24;94.82